Time;durP1;ratioP1;P1;durP2;ratioP2;P2;SDS_P1;SDS_P2;PMS_P1;PMS_P2;Temp;Humidity;BMP_temperature;BMP_pressure;BME280_temperature;BME280_humidity;BME280_pressure;Samples;Min_cycle;Max_cycle;Signal;HPM_P1;HPM_P2
2022/05/20 00:00:06;;;;;;;4.37;2.28;;;;;;;13.28;55.76;100621.81;4347425;32;34545;-74
2022/05/20 00:02:34;;;;;;;6.07;2.40;;;;;;;13.38;55.24;100623.06;4334848;33;34999;-74
2022/05/20 00:05:02;;;;;;;4.03;2.35;;;;;;;12.70;57.12;100620.13;4334037;33;33272;-75
2022/05/20 00:07:30;;;;;;;3.15;2.17;;;;;;;13.08;56.31;100630.37;4346727;33;33318;-74
2022/05/20 00:09:58;;;;;;;4.40;2.20;;;;;;;13.07;56.22;100620.56;4334532;33;34523;-75
2022/05/20 00:12:26;;;;;;;4.22;2.20;;;;;;;13.21;56.07;100621.09;4354625;32;34102;-75
2022/05/20 00:14:53;;;;;;;4.30;2.05;;;;;;;12.86;56.98;100613.09;4361964;32;34622;-74
2022/05/20 00:17:21;;;;;;;4.60;2.00;;;;;;;12.68;57.12;100612.19;4349034;32;33669;-75
2022/05/20 00:19:48;;;;;;;2.92;2.12;;;;;;;12.89;56.54;100610.72;4362519;32;34014;-74
2022/05/20 00:22:16;;;;;;;4.60;2.30;;;;;;;12.85;56.43;100611.41;4362598;32;34269;-74
2022/05/20 00:27:30;;;;;;;2.35;1.90;;;;;;;13.26;55.38;100607.56;4362538;32;33183;-74
2022/05/20 00:29:58;;;;;;;2.45;1.87;;;;;;;12.97;56.07;100611.38;4361099;32;34034;-73
2022/05/20 00:32:26;;;;;;;3.70;2.20;;;;;;;13.13;55.89;100618.75;4362438;32;35060;-75
2022/05/20 00:34:54;;;;;;;3.60;2.03;;;;;;;12.90;56.05;100609.63;4362349;32;33867;-74
2022/05/20 00:37:22;;;;;;;3.42;2.33;;;;;;;12.83;56.37;100610.84;4362633;32;34289;-75
2022/05/20 00:39:49;;;;;;;3.08;2.05;;;;;;;13.22;55.19;100614.59;4362059;32;34711;-75
2022/05/20 00:42:18;;;;;;;3.40;2.10;;;;;;;12.55;56.90;100603.47;4362483;32;34206;-73
2022/05/20 00:44:46;;;;;;;3.83;2.17;;;;;;;12.62;56.59;100613.16;4361869;32;34738;-74
2022/05/20 00:47:14;;;;;;;3.00;1.70;;;;;;;12.73;56.77;100616.91;4349128;32;34559;-74
2022/05/20 00:49:52;;;;;;;2.97;2.17;;;;;;;12.72;56.50;100618.81;4362084;32;33499;-75
2022/05/20 00:52:23;;;;;;;4.50;2.33;;;;;;;12.93;55.75;100628.19;4348884;32;34136;-73
2022/05/20 00:54:53;;;;;;;2.92;1.73;;;;;;;12.66;56.52;100621.69;4348510;32;33587;-74
2022/05/20 00:57:30;;;;;;;2.62;1.90;;;;;;;13.06;55.14;100627.09;4362308;32;34427;-74
2022/05/20 01:00:08;;;;;;;4.90;2.45;;;;;;;12.92;55.42;100625.75;4335163;33;34890;-74
2022/05/20 01:02:37;;;;;;;3.65;2.05;;;;;;;12.71;56.22;100625.31;4347517;33;35026;-77
2022/05/20 01:05:21;;;;;;;4.05;2.10;;;;;;;12.69;56.09;100621.19;4333495;33;33544;-74
2022/05/20 01:07:49;;;;;;;3.08;1.67;;;;;;;12.77;56.16;100612.66;4333892;33;34351;-74
2022/05/20 01:10:17;;;;;;;3.20;2.17;;;;;;;12.81;55.78;100621.16;4334055;33;33867;-75
2022/05/20 01:12:44;;;;;;;5.87;2.30;;;;;;;12.59;56.39;100619.09;4347891;32;34039;-73
2022/05/20 01:15:12;;;;;;;2.85;2.25;;;;;;;12.77;56.40;100617.28;4361902;32;33867;-77
2022/05/20 01:17:40;;;;;;;3.58;2.30;;;;;;;12.91;55.70;100616.75;4336298;32;32567;-74
2022/05/20 01:20:11;;;;;;;8.00;2.30;;;;;;;13.06;55.19;100623.53;4361575;32;34791;-74
2022/05/20 01:23:01;;;;;;;4.05;2.58;;;;;;;13.03;55.38;100613.13;4348327;32;35183;-74
2022/05/20 01:25:30;;;;;;;4.60;2.10;;;;;;;12.84;55.85;100615.22;4348400;32;33967;-76
2022/05/20 01:27:58;;;;;;;3.67;2.35;;;;;;;12.69;56.31;100611.13;4348477;32;33489;-75
2022/05/20 01:30:27;;;;;;;2.95;2.10;;;;;;;12.72;56.42;100607.94;4361791;32;34865;-74
2022/05/20 01:32:54;;;;;;;2.85;1.98;;;;;;;12.75;56.55;100606.63;4361909;32;34200;-72
2022/05/20 01:35:28;;;;;;;4.00;2.42;;;;;;;12.62;56.73;100612.34;4361690;32;33872;-74
2022/05/20 01:37:55;;;;;;;3.40;2.37;;;;;;;12.54;56.82;100615.44;4336401;32;34457;-73
2022/05/20 01:40:23;;;;;;;2.50;1.92;;;;;;;12.72;56.08;100615.25;4348890;32;34857;-73
2022/05/20 01:42:55;;;;;;;4.35;2.20;;;;;;;12.63;56.19;100609.34;4356638;32;34218;-73
2022/05/20 01:45:29;;;;;;;4.20;2.53;;;;;;;12.51;56.68;100609.41;4333524;33;34394;-75
2022/05/20 01:48:08;;;;;;;4.28;2.75;;;;;;;12.20;57.86;100607.94;4333619;33;33460;-75
2022/05/20 01:50:43;;;;;;;3.60;2.20;;;;;;;12.04;58.08;100606.75;4346336;33;33975;-76
2022/05/20 01:53:17;;;;;;;3.65;2.25;;;;;;;12.37;57.17;100599.84;4333262;33;34266;-74
2022/05/20 01:55:54;;;;;;;3.85;2.05;;;;;;;12.62;56.45;100599.56;4333244;33;33688;-73
2022/05/20 01:58:25;;;;;;;2.50;2.12;;;;;;;12.57;56.30;100588.56;4346536;32;34407;-74
2022/05/20 02:00:55;;;;;;;3.62;2.30;;;;;;;12.38;56.78;100590.63;4346678;33;33946;-75
2022/05/20 02:03:27;;;;;;;3.08;2.20;;;;;;;12.44;56.62;100580.66;4333146;33;35230;-74
2022/05/20 02:06:20;;;;;;;5.47;2.20;;;;;;;12.08;57.09;100578.00;4346503;33;33430;-75
2022/05/20 02:08:53;;;;;;;3.05;2.00;;;;;;;12.05;57.78;100583.94;4333346;33;33176;-73
2022/05/20 02:11:33;;;;;;;3.65;2.33;;;;;;;11.84;58.15;100589.94;4333088;33;34014;-74
2022/05/20 02:14:20;;;;;;;3.60;2.50;;;;;;;12.47;56.08;100586.44;4346235;33;34762;-74
2022/05/20 02:16:56;;;;;;;3.40;2.30;;;;;;;12.44;56.72;100586.94;4332924;33;33696;-73
2022/05/20 02:19:28;;;;;;;3.53;2.22;;;;;;;11.96;57.76;100589.97;4346717;33;33101;-74
2022/05/20 02:22:00;;;;;;;4.05;2.33;;;;;;;11.95;57.76;100586.41;4346167;33;34056;-73
2022/05/20 02:24:30;;;;;;;3.83;2.40;;;;;;;11.71;58.55;100591.00;4332560;33;33947;-73
2022/05/20 02:27:07;;;;;;;3.37;2.28;;;;;;;11.38;58.99;100594.25;4333483;33;34322;-74
2022/05/20 02:29:47;;;;;;;3.80;2.30;;;;;;;11.95;57.66;100594.56;4346323;33;33904;-73
2022/05/20 02:32:22;;;;;;;3.50;2.53;;;;;;;12.22;56.87;100589.44;4334489;33;33789;-74
2022/05/20 02:34:50;;;;;;;4.10;2.40;;;;;;;12.26;57.13;100593.34;4334317;33;34878;-74
2022/05/20 02:37:19;;;;;;;3.10;2.55;;;;;;;11.93;57.70;100593.16;4348301;32;34033;-72
2022/05/20 02:39:47;;;;;;;3.50;2.30;;;;;;;12.25;56.40;100589.00;4348256;33;33278;-75
2022/05/20 02:42:14;;;;;;;4.10;2.20;;;;;;;11.94;57.18;100581.22;4348297;32;34878;-73
2022/05/20 02:44:42;;;;;;;3.60;2.35;;;;;;;11.92;57.50;100577.91;4347900;33;34302;-73
2022/05/20 02:47:10;;;;;;;4.28;2.60;;;;;;;11.91;58.02;100577.06;4348249;33;33958;-72
2022/05/20 02:49:38;;;;;;;3.87;2.10;;;;;;;11.22;59.10;100565.87;4348041;33;33521;-72
2022/05/20 02:52:06;;;;;;;3.22;2.20;;;;;;;11.38;58.87;100576.09;4334744;33;33626;-75
2022/05/20 02:54:34;;;;;;;4.53;2.70;;;;;;;11.36;59.13;100564.62;4347889;33;35086;-74
2022/05/20 02:57:02;;;;;;;3.47;2.37;;;;;;;11.59;58.50;100558.38;4348284;32;33744;-74
2022/05/20 03:05:02;;;;;;;3.75;2.53;;;;;;;11.85;58.16;100551.63;4347511;33;34184;-74
2022/05/20 03:07:30;;;;;;;4.20;2.50;;;;;;;12.05;57.49;100553.16;4348277;33;34462;-74
2022/05/20 03:10:00;;;;;;;4.00;2.50;;;;;;;11.95;57.41;100556.50;4334698;33;32128;-73
2022/05/20 03:12:28;;;;;;;3.40;2.05;;;;;;;11.72;58.44;100553.78;4359788;32;34959;-75
2022/05/20 03:14:56;;;;;;;3.60;2.40;;;;;;;11.43;59.32;100554.47;4362518;32;34272;-74
2022/05/20 03:17:23;;;;;;;4.80;2.50;;;;;;;11.79;58.42;100547.16;4362928;32;34033;-74
2022/05/20 03:19:51;;;;;;;3.47;2.45;;;;;;;11.48;59.12;100554.56;4349317;32;33537;-74
2022/05/20 03:22:19;;;;;;;3.90;2.42;;;;;;;11.45;59.42;100556.94;4362888;32;34020;-73
2022/05/20 03:24:46;;;;;;;6.50;2.53;;;;;;;11.56;59.65;100560.75;4349063;32;34021;-74
2022/05/20 03:27:16;;;;;;;3.33;2.50;;;;;;;11.87;59.07;100560.38;4361872;32;34715;-74
2022/05/20 03:29:45;;;;;;;3.80;2.30;;;;;;;12.08;57.96;100564.41;4362421;32;34257;-77
2022/05/20 03:32:13;;;;;;;3.15;2.40;;;;;;;12.19;57.39;100564.62;4349267;32;33340;-77
2022/05/20 03:34:41;;;;;;;3.80;2.30;;;;;;;12.08;57.86;100563.59;4348614;32;34017;-74
2022/05/20 03:37:08;;;;;;;3.90;2.67;;;;;;;11.68;59.45;100559.69;4362817;32;33811;-74
2022/05/20 03:39:36;;;;;;;3.72;2.40;;;;;;;12.14;58.46;100556.34;4336709;32;32812;-74
2022/05/20 03:42:04;;;;;;;5.53;2.62;;;;;;;12.02;58.72;100556.38;4349724;32;33991;-74
2022/05/20 03:44:32;;;;;;;6.30;2.60;;;;;;;11.88;59.16;100550.38;4352243;32;35151;-72
2022/05/20 03:47:00;;;;;;;3.50;2.50;;;;;;;12.03;58.99;100563.47;4348378;32;34655;-77
2022/05/20 03:49:28;;;;;;;3.40;2.40;;;;;;;12.22;58.52;100564.16;4362420;32;33565;-72
2022/05/20 03:51:57;;;;;;;3.10;2.30;;;;;;;12.36;58.11;100564.72;4362567;32;34039;-76
2022/05/20 03:54:29;;;;;;;4.50;2.70;;;;;;;12.58;57.65;100557.53;4362469;32;34186;-72
2022/05/20 03:56:56;;;;;;;3.75;2.17;;;;;;;12.55;57.21;100566.22;4335760;33;33585;-75
2022/05/20 03:59:24;;;;;;;3.67;2.42;;;;;;;12.52;57.27;100563.94;4347373;33;33296;-75
2022/05/20 04:01:57;;;;;;;4.25;2.62;;;;;;;12.22;58.85;100553.25;4347684;33;33955;-78
2022/05/20 04:04:32;;;;;;;3.70;2.15;;;;;;;12.06;59.79;100554.84;4322342;33;33163;-81
2022/05/20 04:07:04;;;;;;;3.97;2.70;;;;;;;11.45;61.87;100560.50;4347861;33;34877;-76
2022/05/20 04:09:32;;;;;;;3.70;2.17;;;;;;;11.45;61.45;100555.06;4334066;32;34138;-79
2022/05/20 04:12:03;;;;;;;3.80;2.50;;;;;;;12.10;58.85;100559.56;4347424;32;33961;-79
2022/05/20 04:14:32;;;;;;;5.95;2.50;;;;;;;12.21;58.47;100555.16;4334123;33;35203;-77
2022/05/20 04:17:03;;;;;;;3.42;2.42;;;;;;;12.73;57.68;100565.19;4347637;33;33756;-75
2022/05/20 04:19:33;;;;;;;4.50;2.78;;;;;;;12.79;57.02;100561.50;4347464;33;34043;-80
2022/05/20 04:22:06;;;;;;;5.25;2.30;;;;;;;13.05;56.83;100561.97;4334150;33;34835;-77
2022/05/20 04:24:34;;;;;;;3.67;2.30;;;;;;;14.22;54.55;100562.16;4358878;32;35111;-82
2022/05/20 04:27:02;;;;;;;4.18;2.30;;;;;;;14.83;51.81;100567.53;4362327;32;34896;-83
2022/05/20 04:29:30;;;;;;;4.57;2.50;;;;;;;15.32;50.70;100560.09;4342593;32;33263;-81
2022/05/20 04:31:57;;;;;;;3.95;2.40;;;;;;;15.87;49.31;100559.97;4354130;32;34147;-86
2022/05/20 04:34:25;;;;;;;3.80;2.53;;;;;;;16.26;49.88;100545.94;4346515;33;35198;-73
2022/05/20 04:36:53;;;;;;;4.57;2.40;;;;;;;16.63;49.57;100554.03;4348346;32;33805;-77
2022/05/20 04:39:20;;;;;;;4.03;2.40;;;;;;;15.81;50.59;100561.88;4347525;32;33516;-70
2022/05/20 04:47:26;;;;;;;5.50;2.58;;;;;;;16.46;48.11;100564.34;4346519;33;34746;-75
2022/05/20 04:49:54;;;;;;;3.67;2.40;;;;;;;16.46;46.95;100554.25;4346323;33;33495;-75
2022/05/20 04:52:22;;;;;;;3.15;2.00;;;;;;;15.83;49.43;100547.91;4345290;32;34840;-71
2022/05/20 04:54:50;;;;;;;5.12;2.42;;;;;;;15.72;50.00;100547.00;4344422;32;35053;-81
2022/05/20 04:57:19;;;;;;;4.30;2.75;;;;;;;15.42;50.74;100545.69;4361815;32;34729;-81
2022/05/20 04:59:47;;;;;;;3.87;2.20;;;;;;;15.87;50.64;100555.31;4376427;32;33873;-78
2022/05/20 05:02:14;;;;;;;5.28;3.17;;;;;;;15.70;51.19;100558.19;4366688;32;34067;-86
2022/05/20 05:04:42;;;;;;;3.50;2.33;;;;;;;16.03;51.60;100558.97;4352686;32;33982;-70
2022/05/20 05:07:11;;;;;;;3.45;2.25;;;;;;;15.99;50.25;100561.41;4346202;32;35197;-72
2022/05/20 05:09:40;;;;;;;8.38;2.60;;;;;;;15.76;50.06;100554.41;4345707;33;34438;-73
2022/05/20 05:12:09;;;;;;;3.85;2.53;;;;;;;16.51;48.77;100572.63;4346077;33;33511;-78
2022/05/20 05:14:44;;;;;;;5.03;2.42;;;;;;;16.91;48.37;100577.44;4346675;33;33932;-82
2022/05/20 05:17:14;;;;;;;4.12;2.60;;;;;;;16.77;48.13;100579.81;4333680;33;34047;-82
2022/05/20 05:19:44;;;;;;;4.78;2.30;;;;;;;17.42;45.40;100573.91;4333500;33;32869;-72
2022/05/20 05:22:12;;;;;;;5.47;2.30;;;;;;;17.70;44.57;100582.69;4333280;33;33439;-72
2022/05/20 05:24:40;;;;;;;3.65;2.40;;;;;;;17.12;46.65;100571.97;4346497;33;33974;-73
2022/05/20 05:27:08;;;;;;;5.30;2.62;;;;;;;18.19;44.31;100573.84;4333277;33;33840;-72
2022/05/20 05:29:36;;;;;;;6.35;2.33;;;;;;;17.70;46.38;100567.03;4346949;33;33906;-72
2022/05/20 05:32:04;;;;;;;3.58;2.30;;;;;;;17.90;45.44;100566.22;4346587;33;33510;-72
2022/05/20 05:34:33;;;;;;;4.12;2.58;;;;;;;18.44;45.11;100557.28;4346512;33;34255;-73
2022/05/20 05:37:00;;;;;;;4.55;2.28;;;;;;;18.30;44.85;100555.41;4346210;33;33475;-75
2022/05/20 05:39:28;;;;;;;3.15;2.37;;;;;;;18.24;47.54;100551.84;4346758;33;33631;-76
2022/05/20 05:41:59;;;;;;;3.45;2.50;;;;;;;17.92;44.74;100549.47;4346519;33;34015;-77
2022/05/20 05:44:26;;;;;;;3.05;2.33;;;;;;;18.53;43.86;100551.16;4346447;33;34295;-77
2022/05/20 05:46:55;;;;;;;4.85;2.80;;;;;;;19.61;42.03;100554.00;4346530;33;34770;-76
2022/05/20 05:49:23;;;;;;;3.78;1.70;;;;;;;19.51;40.48;100556.88;4346313;33;33670;-73
2022/05/20 05:51:50;;;;;;;5.30;2.15;;;;;;;20.65;35.13;100556.19;4332665;33;33882;-73
2022/05/20 05:54:18;;;;;;;2.67;1.85;;;;;;;21.49;30.95;100549.16;4346547;33;34072;-75
2022/05/20 05:56:46;;;;;;;3.53;1.90;;;;;;;21.79;30.22;100547.81;4346286;33;33714;-76
2022/05/20 05:59:13;;;;;;;3.47;2.05;;;;;;;22.40;30.04;100556.06;4346554;33;33032;-74
2022/05/20 06:01:41;;;;;;;4.35;2.00;;;;;;;22.04;30.70;100556.72;4346405;33;34153;-73
2022/05/20 06:04:09;;;;;;;2.95;2.08;;;;;;;22.42;29.15;100551.00;4347784;33;35183;-73
2022/05/20 06:06:36;;;;;;;4.05;2.20;;;;;;;22.76;29.87;100541.41;4323236;33;33548;-74
2022/05/20 06:09:04;;;;;;;3.20;2.00;;;;;;;23.04;29.16;100548.53;4349405;33;33501;-73
2022/05/20 06:11:31;;;;;;;5.70;2.30;;;;;;;23.31;28.39;100549.56;4349219;33;33778;-73
2022/05/20 06:13:59;;;;;;;3.28;1.83;;;;;;;23.88;29.91;100547.00;4349303;33;34281;-73
2022/05/20 06:16:26;;;;;;;2.40;1.90;;;;;;;23.58;29.37;100542.25;4349193;33;33876;-73
2022/05/20 06:18:54;;;;;;;3.28;1.65;;;;;;;23.79;28.27;100537.81;4349070;33;33322;-73
2022/05/20 06:21:22;;;;;;;2.87;1.75;;;;;;;25.20;25.73;100540.59;4349330;33;33989;-73
2022/05/20 06:23:49;;;;;;;2.65;1.85;;;;;;;25.68;25.27;100538.72;4349381;33;34056;-74
2022/05/20 06:26:17;;;;;;;2.87;1.70;;;;;;;25.79;25.15;100535.25;4349038;33;33769;-73
2022/05/20 06:28:45;;;;;;;2.08;1.58;;;;;;;25.97;25.95;100532.44;4336061;33;34328;-73
2022/05/20 06:31:13;;;;;;;2.70;1.70;;;;;;;25.31;26.75;100532.75;4335886;33;34813;-74
2022/05/20 06:33:40;;;;;;;2.15;1.62;;;;;;;25.73;25.74;100535.78;4349013;33;34142;-73
2022/05/20 06:41:40;;;;;;;2.42;1.58;;;;;;;24.52;26.44;100535.50;4349036;33;33830;-73
2022/05/20 06:44:08;;;;;;;3.70;2.05;;;;;;;23.97;28.29;100535.94;4349109;33;34496;-72
2022/05/20 06:46:36;;;;;;;4.55;1.95;;;;;;;23.78;27.81;100538.97;4349614;33;33944;-73
2022/05/20 06:49:04;;;;;;;2.83;1.95;;;;;;;23.68;29.33;100544.75;4349212;33;33261;-73
2022/05/20 06:51:34;;;;;;;4.85;2.08;;;;;;;24.01;29.59;100548.03;4349186;33;33776;-73
2022/05/20 06:54:04;;;;;;;2.40;1.80;;;;;;;25.10;27.91;100541.75;4335387;33;33141;-72
2022/05/20 06:56:32;;;;;;;3.12;1.90;;;;;;;25.64;28.63;100546.09;4336064;33;34639;-71
2022/05/20 06:59:01;;;;;;;2.50;1.67;;;;;;;26.73;25.33;100545.44;4348868;33;33326;-72
2022/05/20 07:01:29;;;;;;;3.30;1.98;;;;;;;27.58;22.92;100552.59;4349033;33;33753;-72
2022/05/20 07:03:57;;;;;;;2.83;1.87;;;;;;;28.23;23.40;100554.81;4347696;32;34026;-72
2022/05/20 07:06:26;;;;;;;3.17;1.60;;;;;;;28.89;22.62;100561.25;4354185;32;33964;-71
2022/05/20 07:08:53;;;;;;;3.08;1.70;;;;;;;28.87;23.19;100549.63;4362583;32;34153;-71
2022/05/20 07:11:23;;;;;;;4.03;2.58;;;;;;;29.36;21.28;100541.91;4362443;32;34008;-72
2022/05/20 07:13:55;;;;;;;2.42;1.73;;;;;;;28.99;23.47;100549.59;4362515;32;34320;-71
2022/05/20 07:16:25;;;;;;;2.20;1.60;;;;;;;29.41;22.62;100566.78;4361912;32;34770;-70
2022/05/20 07:18:53;;;;;;;3.50;1.83;;;;;;;29.32;22.18;100556.94;4348992;32;33331;-74
2022/05/20 07:21:21;;;;;;;4.12;2.00;;;;;;;29.64;21.95;100558.63;4362167;32;34007;-71
2022/05/20 07:23:49;;;;;;;3.28;1.87;;;;;;;29.57;21.98;100549.25;4362451;32;35008;-72
2022/05/20 07:26:17;;;;;;;2.05;1.62;;;;;;;28.86;21.56;100556.38;4362368;32;34617;-71
2022/05/20 07:28:45;;;;;;;2.95;1.67;;;;;;;28.18;22.25;100555.03;4362555;32;33461;-71
2022/05/20 07:31:14;;;;;;;2.92;1.70;;;;;;;27.48;22.86;100560.59;4362550;32;33967;-72
2022/05/20 07:33:43;;;;;;;3.20;1.70;;;;;;;26.89;24.65;100551.25;4348880;32;34015;-71
2022/05/20 07:36:10;;;;;;;2.95;1.50;;;;;;;26.72;23.63;100554.16;4362094;32;33755;-71
2022/05/20 07:38:38;;;;;;;3.12;1.50;;;;;;;25.98;23.88;100550.75;4359461;32;33600;-72
2022/05/20 07:41:06;;;;;;;4.00;1.77;;;;;;;25.20;27.13;100542.56;4362267;32;35203;-71
2022/05/20 07:43:33;;;;;;;2.45;1.52;;;;;;;25.53;26.13;100540.91;4359870;32;34963;-76
2022/05/20 07:46:01;;;;;;;3.05;1.98;;;;;;;25.73;26.36;100555.22;4362250;32;34737;-76
2022/05/20 07:48:30;;;;;;;4.30;2.00;;;;;;;25.54;27.21;100548.06;4362144;32;33115;-77
2022/05/20 07:51:03;;;;;;;2.53;1.90;;;;;;;25.70;25.90;100551.16;4362240;32;33247;-71
2022/05/20 07:53:37;;;;;;;2.67;1.75;;;;;;;25.67;26.22;100545.44;4361804;32;34341;-74
2022/05/20 07:56:13;;;;;;;3.05;2.00;;;;;;;25.54;25.88;100552.81;4362577;32;33919;-76
2022/05/20 07:58:47;;;;;;;2.90;1.73;;;;;;;25.18;26.94;100546.47;4335853;32;32737;-76
2022/05/20 08:01:22;;;;;;;5.00;2.22;;;;;;;24.98;28.03;100536.81;4352211;32;33873;-72
2022/05/20 08:06:44;;;;;;;3.17;1.92;;;;;;;25.37;28.30;100537.81;4336068;33;33773;-71
2022/05/20 08:09:12;;;;;;;5.03;1.80;;;;;;;24.87;27.58;100535.53;4347287;33;33474;-72
2022/05/20 08:11:40;;;;;;;1.80;1.40;;;;;;;25.29;28.28;100535.87;4347461;33;34145;-72
2022/05/20 08:14:07;;;;;;;3.85;1.80;;;;;;;25.43;26.62;100534.88;4346946;33;33417;-70
2022/05/20 08:16:35;;;;;;;3.42;1.77;;;;;;;25.43;27.78;100535.69;4355079;32;33966;-73
2022/05/20 08:19:03;;;;;;;3.28;2.12;;;;;;;25.50;27.20;100530.44;4354024;32;33427;-71
2022/05/20 08:21:31;;;;;;;2.37;1.65;;;;;;;25.55;27.48;100523.88;4347622;33;34057;-76
2022/05/20 08:23:59;;;;;;;2.53;1.87;;;;;;;25.25;28.29;100534.06;4348325;33;33963;-75
2022/05/20 08:26:26;;;;;;;3.58;1.70;;;;;;;25.26;28.25;100525.41;4348414;33;34125;-77
2022/05/20 08:28:54;;;;;;;2.22;1.80;;;;;;;25.52;28.47;100527.31;4347468;33;33468;-70
2022/05/20 08:31:22;;;;;;;2.58;1.60;;;;;;;25.91;27.53;100525.44;4348055;33;33796;-76
2022/05/20 08:33:50;;;;;;;2.30;1.70;;;;;;;25.75;28.17;100523.16;4348294;33;34122;-75
2022/05/20 08:36:19;;;;;;;3.10;1.70;;;;;;;26.24;27.18;100516.44;4348189;32;34016;-74
2022/05/20 08:38:47;;;;;;;1.85;1.52;;;;;;;26.45;28.04;100519.25;4348069;33;33432;-76
2022/05/20 08:41:19;;;;;;;2.92;1.75;;;;;;;26.16;27.08;100521.72;4348353;33;34720;-85
2022/05/20 08:43:47;;;;;;;3.55;2.10;;;;;;;26.30;27.20;100518.69;4334953;33;34224;-80
2022/05/20 08:46:15;;;;;;;2.15;1.70;;;;;;;26.66;24.92;100514.56;4347717;33;34739;-76
2022/05/20 08:48:44;;;;;;;2.47;1.58;;;;;;;26.49;25.45;100506.31;4322696;33;31952;-80
2022/05/20 08:51:12;;;;;;;3.45;1.60;;;;;;;26.02;27.17;100496.09;4335058;33;34855;-83
2022/05/20 08:53:42;;;;;;;2.17;1.73;;;;;;;26.05;27.11;100500.16;4354074;32;34238;-78
2022/05/20 08:56:13;;;;;;;3.12;1.80;;;;;;;26.51;26.56;100495.66;4349543;32;34610;-82
2022/05/20 08:59:05;;;;;;;1.95;1.50;;;;;;;26.68;25.52;100497.53;4362834;32;34126;-73
2022/05/20 09:01:36;;;;;;;2.72;1.80;;;;;;;26.68;25.47;100491.97;4362489;32;34088;-85
2022/05/20 09:04:09;;;;;;;2.85;1.80;;;;;;;26.56;27.49;100495.47;4362618;32;35223;-78
2022/05/20 09:06:55;;;;;;;2.08;1.70;;;;;;;26.75;25.74;100481.09;4362965;32;33996;-85
2022/05/20 09:09:26;;;;;;;2.28;1.60;;;;;;;27.06;25.51;100466.69;4362701;32;34235;-84
2022/05/20 09:11:56;;;;;;;2.55;1.50;;;;;;;26.79;25.83;100466.12;4349567;32;33671;-72
2022/05/20 09:17:18;;;;;;;2.05;1.58;;;;;;;27.00;25.78;100465.31;4362734;32;33604;-85
2022/05/20 09:19:57;;;;;;;3.78;1.65;;;;;;;26.85;27.15;100460.37;4362647;32;33583;-77
2022/05/20 09:22:27;;;;;;;2.83;1.60;;;;;;;27.11;26.86;100468.47;4349438;32;33663;-83
2022/05/20 09:24:56;;;;;;;2.25;1.75;;;;;;;26.80;27.15;100453.03;4362842;32;35064;-84
2022/05/20 09:27:36;;;;;;;2.25;1.75;;;;;;;26.62;26.65;100457.94;4349347;32;33765;-84
2022/05/20 09:30:12;;;;;;;3.03;1.58;;;;;;;26.82;27.81;100452.69;4362509;32;34214;-81
2022/05/20 09:32:47;;;;;;;3.42;1.87;;;;;;;26.95;28.57;100449.59;4349275;32;33644;-80
2022/05/20 09:35:18;;;;;;;4.55;1.77;;;;;;;27.40;27.40;100448.03;4362626;32;35220;-88
2022/05/20 09:37:48;;;;;;;2.40;1.70;;;;;;;27.20;26.98;100450.50;4362380;32;34662;-83
2022/05/20 09:40:15;;;;;;;3.22;1.67;;;;;;;27.52;26.40;100450.03;4362422;32;33510;-73
2022/05/20 09:43:22;;;;;;;2.08;1.48;;;;;;;27.35;26.15;100439.91;4362370;32;33896;-84
2022/05/20 09:45:50;;;;;;;3.10;1.95;;;;;;;27.62;26.02;100433.66;4349133;32;33914;-81
2022/05/20 09:48:36;;;;;;;2.60;1.77;;;;;;;27.80;27.37;100445.41;4362420;32;34668;-83
2022/05/20 09:51:06;;;;;;;6.37;1.60;;;;;;;27.64;26.47;100438.88;4349257;32;33585;-75
2022/05/20 09:53:36;;;;;;;4.85;2.08;;;;;;;27.66;25.64;100449.69;4348925;32;33673;-91
2022/05/20 09:56:32;;;;;;;2.70;1.62;;;;;;;27.53;26.71;100446.87;4348976;32;34068;-75
2022/05/20 09:59:20;;;;;;;2.95;1.45;;;;;;;27.97;25.84;100449.12;4360706;32;33670;-72
2022/05/20 10:02:03;;;;;;;2.45;1.60;;;;;;;28.16;25.76;100451.31;4349138;32;34243;-84
2022/05/20 10:04:46;;;;;;;3.35;1.73;;;;;;;27.91;26.47;100445.78;4361931;32;33972;-79
2022/05/20 10:07:17;;;;;;;2.87;1.90;;;;;;;28.05;27.07;100433.44;4348888;32;34009;-72
2022/05/20 10:09:53;;;;;;;3.58;1.70;;;;;;;28.22;26.47;100435.97;4362433;32;34020;-76
2022/05/20 10:12:28;;;;;;;4.12;1.90;;;;;;;28.30;27.05;100440.63;4348844;32;34190;-74
2022/05/20 10:15:03;;;;;;;2.55;1.80;;;;;;;28.23;25.48;100435.62;4349257;32;33786;-73
2022/05/20 10:17:52;;;;;;;2.42;1.58;;;;;;;28.33;26.08;100427.94;4362108;32;34244;-73
2022/05/20 10:21:04;;;;;;;2.08;1.65;;;;;;;28.14;27.87;100423.81;4348870;32;34037;-73
2022/05/20 10:23:39;;;;;;;2.80;1.73;;;;;;;28.53;26.51;100427.00;4331620;32;34082;-73
2022/05/20 10:26:19;;;;;;;2.12;1.65;;;;;;;27.93;27.09;100412.78;4348568;32;33158;-74
2022/05/20 10:34:44;;;;;;;;;;;;;;;28.98;27.17;100408.28;4351001;32;33557;-74
2022/05/20 10:37:33;;;;;;;2.42;1.65;;;;;;;28.88;25.95;100419.97;4362053;32;34319;-73
2022/05/20 10:40:06;;;;;;;2.37;1.80;;;;;;;29.13;27.37;100418.69;4361874;32;35057;-73
2022/05/20 10:42:52;;;;;;;4.25;1.87;;;;;;;28.77;25.53;100423.28;4362024;32;33824;-72
2022/05/20 10:48:34;;;;;;;5.07;2.00;;;;;;;29.05;25.28;100419.66;4350529;32;34046;-72
2022/05/20 10:51:20;;;;;;;;;;;;;;;29.09;26.56;100400.19;4350408;32;34203;-73
2022/05/20 10:54:06;;;;;;;2.37;1.80;;;;;;;29.30;25.82;100399.97;4363861;32;34856;-73
2022/05/20 10:56:52;;;;;;;2.28;1.90;;;;;;;29.31;25.71;100405.22;4350633;32;33573;-73
2022/05/20 10:59:51;;;;;;;3.50;1.67;;;;;;;29.42;25.81;100402.69;4364062;32;34031;-73
2022/05/20 11:02:21;;;;;;;3.10;1.85;;;;;;;28.92;25.43;100388.19;4364047;32;35077;-73
2022/05/20 11:05:08;;;;;;;2.90;1.90;;;;;;;28.99;27.31;100393.16;4363862;32;34106;-74
2022/05/20 11:07:59;;;;;;;2.30;1.80;;;;;;;28.54;27.04;100386.72;4363937;32;33630;-74
2022/05/20 11:10:35;;;;;;;3.05;1.90;;;;;;;28.93;28.09;100392.59;4350157;32;33770;-73
2022/05/20 11:13:20;;;;;;;3.22;1.65;;;;;;;29.48;25.80;100387.25;4363842;32;35071;-89
2022/05/20 11:16:10;;;;;;;3.40;1.90;;;;;;;29.95;25.18;100380.78;4363653;32;33768;-75
2022/05/20 11:18:38;;;;;;;2.08;1.73;;;;;;;29.93;25.62;100366.34;4363481;32;33458;-75
2022/05/20 11:21:46;;;;;;;1.85;1.62;;;;;;;29.11;25.66;100367.13;4363688;32;35394;-73
2022/05/20 11:24:39;;;;;;;4.12;2.00;;;;;;;29.04;25.88;100364.94;4342594;32;33945;-74
2022/05/20 11:27:53;;;;;;;3.40;1.87;;;;;;;29.24;25.29;100366.72;4350386;32;34082;-73
2022/05/20 11:30:30;;;;;;;2.95;1.98;;;;;;;29.75;25.74;100368.75;4350193;32;33497;-73
2022/05/20 11:33:23;;;;;;;3.30;2.30;;;;;;;29.53;24.49;100373.00;4344442;33;34155;-72
2022/05/20 11:36:05;;;;;;;3.33;2.10;;;;;;;28.94;26.05;100362.66;4345693;32;33921;-71
2022/05/20 11:38:57;;;;;;;2.42;1.90;;;;;;;29.50;27.08;100356.13;4347446;33;34148;-73
2022/05/20 11:41:49;;;;;;;3.40;2.10;;;;;;;29.67;28.42;100361.34;4361316;32;33485;-77
2022/05/20 11:44:36;;;;;;;2.90;1.70;;;;;;;30.00;26.62;100360.09;4362478;32;33612;-72
2022/05/20 11:47:25;;;;;;;2.05;1.52;;;;;;;29.87;25.06;100345.47;4349152;32;34210;-72
2022/05/20 11:50:28;;;;;;;3.22;1.73;;;;;;;29.38;26.82;100334.69;4362046;32;33398;-73
2022/05/20 11:53:12;;;;;;;2.87;1.95;;;;;;;30.13;25.42;100338.41;4362155;32;34235;-73
2022/05/20 11:56:14;;;;;;;2.50;2.05;;;;;;;29.83;25.80;100333.38;4348487;32;34970;-72
2022/05/20 11:58:50;;;;;;;2.37;1.73;;;;;;;28.98;26.56;100324.47;4360457;32;33921;-72
2022/05/20 12:01:18;;;;;;;2.55;1.70;;;;;;;28.84;27.46;100333.31;4348845;32;33970;-71
2022/05/20 12:06:45;;;;;;;3.67;1.85;;;;;;;29.76;27.26;100333.19;4350436;32;34072;-72
2022/05/20 12:09:32;;;;;;;3.35;2.10;;;;;;;29.26;28.17;100321.63;4361919;32;34238;-72
2022/05/20 12:12:29;;;;;;;3.80;1.98;;;;;;;28.91;27.19;100324.28;4360515;32;34763;-75
2022/05/20 12:14:58;;;;;;;2.53;1.70;;;;;;;29.31;28.88;100314.94;4348655;32;34342;-73
2022/05/20 12:17:41;;;;;;;2.87;1.58;;;;;;;30.20;26.88;100313.38;4362286;32;33874;-73
2022/05/20 12:26:20;;;;;;;3.08;1.90;;;;;;;30.16;27.96;100304.09;4336639;32;33248;-72
2022/05/20 12:28:48;;;;;;;2.47;1.85;;;;;;;29.81;26.65;100299.38;4362116;32;33893;-72
2022/05/20 12:31:40;;;;;;;2.45;1.90;;;;;;;29.99;27.74;100302.53;4362189;32;35111;-73
2022/05/20 12:34:15;;;;;;;2.42;1.73;;;;;;;30.05;26.50;100301.87;4346447;32;33747;-70